Newton, MA (02458)

11:56 PM EDT on July 30, 2015 (GMT -0400)
Watertown Square | | Change Station
CLOSE
Current Station
Personal Weather Station
Location: Watertown, MA
Elevation: 46 ft
Nearby Weather Stations

Elev 46 ft 42.37 °N, 71.19 °W | Updated 15 minutes ago

Mostly Cloudy
Mostly Cloudy
74.5 °F
Feels Like 77 °F
N
0.0
Wind Variable Wind from NW

Today
High -- | Low -- °F
--% Chance of Precip.
Yesterday
High -- | Low -- °F
Precip. -- in
5:35 AM 8:06 PM
Full, 100% visible
Pressure 29.81 in
Visibility 10.0 miles
Clouds Few 7000 ft
Heat Index 77 °F
Dew Point 55 °F
Humidity 50%
Rainfall 0.00 in
Snow Depth Not available.
UV 0 out of 12
Pollen 5.10 out of 12
Air Quality Not available.
Flu Activity Not available.
METAR KBED 310256Z 24005KT 10SM FEW070 23/22 A2978 RMK AO2 SLP094 T02280217 50004

More Conditions Fewer Conditions

Pressure 29.81 in
Visibility 10.0 miles
Clouds Few 7000 ft
Heat Index 77 °F
Dew Point 55 °F
Humidity 50%
Rainfall 0.00 in
Snow Depth Not available.
UV 0 out of 12
Pollen 5.10 out of 12
Air Quality Not available.
Flu Activity Not available.
METAR KBED 310256Z 24005KT 10SM FEW070 23/22 A2978 RMK AO2 SLP094 T02280217 50004

More Conditions Fewer Conditions

10-Day Weather Forecast

×

Almanac

Astronomy

Jul. 30, 2015 Rise Set
Actual Time
Civil Twilight
Nautical Twilight
Astronomical Twilight
Moon
Length of Visible Light
Length of Day
Tomorrow will be .
, % of the Moon is Illuminated

Today's Extremes

State Highs State Lows

Community

WunderPhotos

Upload Photos

1,842,598 photos uploaded!

WunderBlogs® & News

Nearby

Air Quality

  Air Quality AQ Index Pollutant
Not available.

Snow Depth

Station Depth Elevation

Earthquake Activity

City Distance Mag. Time & Date
Minimum magnitude displayed is 2.5.

Coastal Water Temperatures

Place Temperature

Stations

Nearby Weather Stations

Station Location Temp. Windchill Dew Point Humidity Wind Precip. Elev Updated Type